Time;durP1;ratioP1;P1;durP2;ratioP2;P2;SDS_P1;SDS_P2;PMS_P1;PMS_P2;Temp;Humidity;BMP_temperature;BMP_pressure;BME280_temperature;BME280_humidity;BME280_pressure;Samples;Min_cycle;Max_cycle;Signal;HPM_P1;HPM_P2
2022/05/22 00:00:42;;;;;;;16.00;7.20;;;11.30;99.90;;;;;;5112398;28;20240;-52
2022/05/22 00:03:11;;;;;;;8.80;6.67;;;11.30;99.90;;;;;;5111996;28;20228;-51
2022/05/22 00:05:39;;;;;;;10.13;7.27;;;11.20;99.90;;;;;;5112694;28;20291;-52
2022/05/22 00:08:09;;;;;;;15.27;7.53;;;11.20;99.90;;;;;;5112346;28;20243;-52
2022/05/22 00:10:37;;;;;;;10.43;6.97;;;11.20;99.90;;;;;;5112070;28;20266;-50
2022/05/22 00:13:06;;;;;;;11.43;7.77;;;11.10;99.90;;;;;;5111273;28;20250;-51
2022/05/22 00:15:37;;;;;;;10.93;7.43;;;11.10;99.90;;;;;;5111645;28;20725;-52
2022/05/22 00:18:06;;;;;;;9.33;7.93;;;11.10;99.90;;;;;;5111989;28;20990;-52
2022/05/22 00:20:34;;;;;;;12.60;7.67;;;11.00;99.90;;;;;;5111764;28;20297;-52
2022/05/22 00:23:02;;;;;;;12.80;7.70;;;11.00;99.90;;;;;;5111270;28;20261;-52
2022/05/22 00:25:31;;;;;;;12.67;8.10;;;11.00;99.90;;;;;;5112327;28;20242;-52
2022/05/22 00:27:59;;;;;;;11.00;7.70;;;10.90;99.90;;;;;;5111759;28;20229;-52
2022/05/22 00:30:27;;;;;;;10.67;7.20;;;11.00;99.90;;;;;;5111932;28;20223;-52
2022/05/22 00:32:55;;;;;;;13.73;8.37;;;11.00;99.90;;;;;;5110910;28;20242;-52
2022/05/22 00:35:23;;;;;;;10.40;7.63;;;11.00;99.90;;;;;;5112216;28;20227;-52
2022/05/22 00:37:51;;;;;;;10.93;7.77;;;10.90;99.90;;;;;;5111499;28;20215;-52
2022/05/22 00:40:20;;;;;;;16.37;7.97;;;10.90;99.90;;;;;;5111386;28;20227;-52
2022/05/22 00:42:50;;;;;;;12.70;8.50;;;10.90;99.90;;;;;;5111538;28;20248;-52
2022/05/22 00:45:19;;;;;;;14.23;8.57;;;10.80;99.90;;;;;;5111149;28;20687;-51
2022/05/22 00:47:47;;;;;;;10.70;8.60;;;10.80;99.90;;;;;;5120865;27;20203;-52
2022/05/22 00:50:15;;;;;;;11.40;8.50;;;10.80;99.90;;;;;;5126260;27;20377;-52
2022/05/22 00:52:47;;;;;;;12.73;8.63;;;10.90;99.90;;;;;;5109955;28;20699;-51
2022/05/22 00:55:17;;;;;;;13.13;9.10;;;10.90;99.90;;;;;;5111336;28;20231;-52
2022/05/22 00:57:49;;;;;;;12.93;8.00;;;10.90;99.90;;;;;;5110973;28;20298;-51
2022/05/22 01:00:21;;;;;;;10.90;7.47;;;10.90;99.90;;;;;;5110558;28;20300;-51
2022/05/22 01:05:37;;;;;;;12.17;8.07;;;10.90;99.90;;;;;;5108944;28;20204;-52
2022/05/22 01:08:05;;;;;;;10.57;7.80;;;10.90;99.90;;;;;;5109251;28;20290;-52
2022/05/22 01:10:38;;;;;;;9.97;7.60;;;10.90;99.90;;;;;;5109147;28;20273;-52
2022/05/22 01:13:07;;;;;;;12.33;8.97;;;10.90;99.90;;;;;;5108973;28;20234;-52
2022/05/22 01:15:36;;;;;;;11.17;8.93;;;10.80;99.90;;;;;;5109150;28;20231;-51
2022/05/22 01:18:04;;;;;;;15.13;8.70;;;10.70;99.90;;;;;;5111008;28;20208;-52
2022/05/22 01:20:33;;;;;;;13.13;9.10;;;10.70;99.90;;;;;;5110122;28;20256;-52
2022/05/22 01:23:03;;;;;;;18.60;8.53;;;10.70;99.90;;;;;;5110166;28;20220;-51
2022/05/22 01:25:31;;;;;;;16.10;8.70;;;10.70;99.90;;;;;;5110168;28;20248;-52
2022/05/22 01:28:00;;;;;;;14.37;9.73;;;10.70;99.90;;;;;;5109596;28;20199;-52
2022/05/22 01:30:29;;;;;;;14.80;8.70;;;10.70;99.90;;;;;;5110562;28;20769;-52
2022/05/22 01:32:57;;;;;;;13.17;9.03;;;10.70;99.90;;;;;;5109896;28;20247;-52
2022/05/22 01:35:28;;;;;;;11.67;8.77;;;10.70;99.90;;;;;;5110757;28;20211;-52
2022/05/22 01:37:57;;;;;;;10.70;8.20;;;10.70;99.90;;;;;;5110351;28;20262;-52
2022/05/22 01:40:27;;;;;;;13.47;9.23;;;10.70;99.90;;;;;;5110413;28;20314;-52
2022/05/22 01:42:55;;;;;;;14.47;8.20;;;10.60;99.90;;;;;;5110362;28;20256;-52
2022/05/22 01:45:25;;;;;;;14.20;9.17;;;10.60;99.90;;;;;;5110016;28;20261;-52
2022/05/22 01:47:53;;;;;;;12.70;8.97;;;10.50;99.90;;;;;;5110406;28;20672;-51
2022/05/22 01:50:22;;;;;;;15.10;9.77;;;10.50;99.90;;;;;;5130639;27;20245;-52
2022/05/22 01:52:50;;;;;;;16.57;10.33;;;10.40;99.90;;;;;;5129358;27;20212;-51
2022/05/22 01:55:18;;;;;;;15.40;9.47;;;10.30;99.90;;;;;;5130813;27;20246;-52
2022/05/22 01:57:48;;;;;;;11.90;9.70;;;10.30;99.90;;;;;;5130636;27;20256;-51
2022/05/22 02:00:19;;;;;;;12.07;9.10;;;10.30;99.90;;;;;;5090266;28;20274;-52
2022/05/22 02:02:48;;;;;;;10.20;9.20;;;10.30;99.90;;;;;;5089074;28;20208;-52
2022/05/22 02:05:17;;;;;;;14.40;9.50;;;10.30;99.90;;;;;;5089279;28;20303;-52
2022/05/22 02:10:31;;;;;;;17.03;10.27;;;10.40;99.90;;;;;;5089552;28;20261;-52
2022/05/22 02:13:01;;;;;;;16.53;9.90;;;10.30;99.90;;;;;;5089092;28;20209;-51
2022/05/22 02:15:29;;;;;;;13.13;9.30;;;10.20;99.90;;;;;;5089116;28;20266;-51
2022/05/22 02:17:58;;;;;;;16.37;9.77;;;10.20;99.90;;;;;;5089916;28;20236;-51
2022/05/22 02:20:27;;;;;;;12.43;8.43;;;10.20;99.90;;;;;;5089332;28;20255;-52
2022/05/22 02:22:57;;;;;;;13.57;9.00;;;10.10;99.90;;;;;;5089094;28;20596;-52
2022/05/22 02:25:29;;;;;;;13.60;9.47;;;10.10;99.90;;;;;;5089815;28;20224;-51
2022/05/22 02:27:59;;;;;;;16.27;9.17;;;10.10;99.90;;;;;;5090436;28;20207;-52
2022/05/22 02:30:32;;;;;;;14.37;9.50;;;10.00;99.90;;;;;;5107005;28;20268;-51
2022/05/22 02:33:00;;;;;;;11.97;8.60;;;10.00;99.90;;;;;;5108895;28;20656;-51
2022/05/22 02:35:30;;;;;;;14.43;9.23;;;10.00;99.90;;;;;;5109692;28;20253;-52
2022/05/22 02:37:58;;;;;;;13.60;9.30;;;9.90;99.90;;;;;;5109280;28;20212;-52
2022/05/22 02:40:29;;;;;;;14.13;9.07;;;9.90;99.90;;;;;;5109804;28;20223;-51
2022/05/22 02:42:58;;;;;;;20.47;10.50;;;9.90;99.90;;;;;;5109314;28;20227;-51
2022/05/22 02:45:30;;;;;;;18.40;9.80;;;9.90;99.90;;;;;;5108751;28;20206;-52
2022/05/22 02:47:58;;;;;;;12.80;8.87;;;9.90;99.90;;;;;;5110052;28;20228;-52
2022/05/22 02:50:30;;;;;;;12.00;9.27;;;9.80;99.90;;;;;;5129767;28;20280;-51
2022/05/22 02:52:58;;;;;;;14.60;9.03;;;9.80;99.90;;;;;;5128670;28;20207;-51
2022/05/22 02:55:26;;;;;;;13.10;9.20;;;9.80;99.90;;;;;;5129727;28;20580;-51
2022/05/22 02:57:54;;;;;;;14.93;9.60;;;9.80;99.90;;;;;;5130014;28;20255;-52
2022/05/22 03:00:26;;;;;;;15.70;9.07;;;9.80;99.90;;;;;;5129646;28;20640;-52
2022/05/22 03:02:55;;;;;;;12.70;8.47;;;9.80;99.90;;;;;;5129495;28;20668;-51
2022/05/22 03:05:26;;;;;;;12.20;9.67;;;9.90;99.90;;;;;;5113581;28;20244;-51
2022/05/22 03:07:54;;;;;;;16.53;9.50;;;9.90;99.90;;;;;;5108923;28;20234;-51
2022/05/22 03:10:24;;;;;;;12.53;8.60;;;9.80;99.90;;;;;;5109610;28;20255;-52
2022/05/22 03:12:52;;;;;;;16.17;8.67;;;9.90;99.90;;;;;;5109063;28;20211;-52
2022/05/22 03:15:20;;;;;;;14.90;8.87;;;9.80;99.90;;;;;;5109215;28;20243;-52
2022/05/22 03:17:48;;;;;;;13.63;8.83;;;9.70;99.90;;;;;;5109756;28;20204;-51
2022/05/22 03:20:18;;;;;;;15.67;8.63;;;9.70;99.90;;;;;;5109262;28;20231;-52
2022/05/22 03:22:47;;;;;;;15.13;8.30;;;9.70;99.90;;;;;;5108863;28;20815;-51
2022/05/22 03:25:15;;;;;;;11.73;8.87;;;9.70;99.90;;;;;;5109076;28;20725;-52
2022/05/22 03:27:43;;;;;;;14.13;8.17;;;9.70;99.90;;;;;;5108945;28;20206;-51
2022/05/22 03:30:11;;;;;;;13.40;7.80;;;9.70;99.90;;;;;;5108772;28;20227;-52
2022/05/22 03:32:39;;;;;;;12.03;8.30;;;9.80;99.90;;;;;;5108691;28;20203;-51
2022/05/22 03:35:08;;;;;;;15.33;8.47;;;9.80;99.90;;;;;;5109148;28;20247;-51
2022/05/22 03:37:38;;;;;;;11.43;7.53;;;9.80;99.90;;;;;;5108588;28;20333;-51
2022/05/22 03:40:08;;;;;;;16.03;8.30;;;9.80;99.90;;;;;;5109692;28;20235;-52
2022/05/22 03:42:36;;;;;;;10.33;8.17;;;9.70;99.90;;;;;;5109058;28;20211;-52
2022/05/22 03:45:05;;;;;;;10.53;8.07;;;9.80;99.90;;;;;;5108950;28;20226;-51
2022/05/22 03:47:33;;;;;;;13.17;8.10;;;9.80;99.90;;;;;;5116166;27;20237;-52
2022/05/22 03:50:04;;;;;;;12.80;7.97;;;9.80;99.90;;;;;;5123411;27;20204;-51
2022/05/22 03:52:34;;;;;;;9.23;6.93;;;9.80;99.90;;;;;;5111649;28;20212;-52
2022/05/22 03:55:03;;;;;;;11.33;7.87;;;9.90;99.90;;;;;;5132865;27;20238;-51
2022/05/22 03:57:31;;;;;;;13.07;8.13;;;9.90;99.90;;;;;;5132234;27;20242;-52
2022/05/22 04:00:01;;;;;;;14.93;8.07;;;9.90;99.90;;;;;;5133204;27;20289;-52
2022/05/22 04:02:30;;;;;;;11.60;8.17;;;9.90;99.90;;;;;;5132759;27;20296;-51
2022/05/22 04:04:58;;;;;;;14.53;8.73;;;9.90;99.90;;;;;;5120318;27;20242;-51
2022/05/22 04:07:26;;;;;;;13.17;8.00;;;10.00;99.90;;;;;;5112140;28;20622;-51
2022/05/22 04:09:54;;;;;;;11.07;7.23;;;10.00;99.90;;;;;;5112018;28;20251;-52
2022/05/22 04:12:23;;;;;;;13.27;8.00;;;10.10;99.90;;;;;;5112314;28;20647;-51
2022/05/22 04:14:54;;;;;;;12.13;6.87;;;10.50;99.90;;;;;;5111717;28;20996;-51
2022/05/22 04:17:22;;;;;;;10.40;6.47;;;11.10;99.90;;;;;;5112469;28;20660;-52
2022/05/22 04:19:50;;;;;;;12.90;8.00;;;11.50;99.90;;;;;;5112202;28;20237;-51
2022/05/22 04:22:18;;;;;;;14.27;8.30;;;11.90;99.90;;;;;;5111664;28;20654;-51
2022/05/22 04:27:37;;;;;;;12.43;7.03;;;12.70;99.90;;;;;;5112293;28;20237;-51
2022/05/22 04:30:07;;;;;;;9.90;6.50;;;13.10;99.90;;;;;;5101678;28;20204;-52
2022/05/22 04:32:35;;;;;;;10.37;6.53;;;13.50;99.90;;;;;;5100519;28;20294;-52
2022/05/22 04:35:03;;;;;;;9.10;6.60;;;13.80;99.90;;;;;;5103707;28;20235;-52
2022/05/22 04:37:31;;;;;;;8.07;6.10;;;14.10;99.90;;;;;;5099947;28;20207;-51
2022/05/22 04:40:01;;;;;;;10.90;5.60;;;14.30;99.90;;;;;;5102507;28;20204;-51
2022/05/22 04:42:29;;;;;;;10.90;5.53;;;14.30;99.90;;;;;;5110720;28;20207;-51
2022/05/22 04:44:58;;;;;;;8.47;5.27;;;14.60;99.90;;;;;;5107001;28;20641;-52
2022/05/22 04:47:26;;;;;;;8.60;5.35;;;14.90;99.90;;;;;;5090063;28;20310;-52
2022/05/22 04:49:55;;;;;;;9.10;5.05;;;15.20;99.90;;;;;;5091581;28;20325;-52
2022/05/22 04:52:23;;;;;;;8.00;5.20;;;15.50;99.90;;;;;;5092393;28;20261;-52
2022/05/22 04:54:52;;;;;;;7.22;4.50;;;15.60;99.90;;;;;;5091309;28;20287;-51
2022/05/22 04:57:20;;;;;;;7.43;4.90;;;16.00;99.90;;;;;;5091642;28;20231;-51
2022/05/22 04:59:49;;;;;;;8.18;4.90;;;16.30;99.90;;;;;;5095469;28;20207;-52
2022/05/22 05:02:18;;;;;;;7.72;5.22;;;16.60;99.90;;;;;;5090771;28;20231;-51
2022/05/22 05:04:46;;;;;;;8.90;5.10;;;17.00;99.90;;;;;;5102528;28;20259;-52
2022/05/22 05:07:14;;;;;;;12.02;4.60;;;17.30;99.90;;;;;;5104700;28;20227;-52
2022/05/22 05:09:42;;;;;;;11.50;5.28;;;17.70;99.90;;;;;;5097537;28;20212;-52
2022/05/22 05:12:10;;;;;;;8.93;4.60;;;17.80;99.90;;;;;;5101021;28;20277;-52
2022/05/22 05:14:39;;;;;;;6.78;4.78;;;18.10;99.90;;;;;;5103215;28;20207;-52
2022/05/22 05:17:08;;;;;;;8.32;4.82;;;18.10;99.90;;;;;;5090352;28;20710;-52
2022/05/22 05:19:38;;;;;;;8.32;4.35;;;17.90;99.90;;;;;;5090125;28;20227;-52
2022/05/22 05:22:07;;;;;;;7.80;4.60;;;17.10;99.90;;;;;;5101807;28;20265;-52
2022/05/22 05:24:35;;;;;;;8.98;4.40;;;16.70;99.90;;;;;;5110088;28;20295;-52
2022/05/22 05:27:03;;;;;;;8.75;4.65;;;16.30;99.90;;;;;;5105063;28;20615;-53
2022/05/22 05:29:51;;;;;;;8.20;4.32;;;16.30;99.90;;;;;;5105720;28;20207;-52
2022/05/22 05:32:19;;;;;;;6.80;5.00;;;16.90;99.90;;;;;;5102174;28;20204;-52
2022/05/22 05:34:55;;;;;;;8.13;4.05;;;17.10;99.90;;;;;;5099816;28;20887;-53
2022/05/22 05:37:23;;;;;;;8.73;4.45;;;17.80;99.90;;;;;;5109416;28;20203;-52
2022/05/22 05:39:51;;;;;;;7.95;4.88;;;18.00;99.90;;;;;;5109395;28;20261;-52
2022/05/22 05:42:20;;;;;;;8.35;4.38;;;18.40;99.90;;;;;;5095558;28;20200;-52
2022/05/22 05:44:49;;;;;;;10.00;4.90;;;18.40;99.90;;;;;;5099783;28;20277;-52
2022/05/22 05:47:17;;;;;;;8.35;5.07;;;18.20;99.90;;;;;;5093552;28;20246;-52
2022/05/22 05:49:45;;;;;;;9.27;5.28;;;18.20;99.90;;;;;;5107622;28;20243;-52
2022/05/22 05:52:15;;;;;;;7.15;4.65;;;18.70;99.90;;;;;;5109000;28;20256;-52
2022/05/22 05:55:04;;;;;;;7.35;4.75;;;19.40;99.90;;;;;;5103927;28;20204;-52
2022/05/22 05:57:32;;;;;;;10.32;4.82;;;19.90;99.90;;;;;;5089203;28;20234;-52
2022/05/22 06:00:00;;;;;;;6.68;4.45;;;20.20;99.90;;;;;;5089117;28;20608;-52
2022/05/22 06:02:28;;;;;;;8.73;4.82;;;20.50;99.90;;;;;;5090867;28;20212;-52
2022/05/22 06:04:56;;;;;;;8.50;4.88;;;20.50;99.90;;;;;;5089133;28;20235;-52
2022/05/22 06:07:25;;;;;;;10.43;5.20;;;20.70;99.90;;;;;;5089652;28;20235;-53
2022/05/22 06:09:53;;;;;;;9.45;5.20;;;20.90;99.90;;;;;;5089499;28;20235;-53
2022/05/22 06:12:22;;;;;;;9.48;5.82;;;21.30;99.90;;;;;;5088861;28;20283;-53
2022/05/22 06:14:50;;;;;;;8.68;5.60;;;21.50;99.90;;;;;;5089196;28;20630;-53
2022/05/22 06:17:18;;;;;;;12.50;6.93;;;22.00;99.90;;;;;;5091388;28;20238;-52
2022/05/22 06:19:58;;;;;;;10.88;5.97;;;21.90;99.90;;;;;;5109692;28;20215;-52
2022/05/22 06:22:34;;;;;;;10.32;6.65;;;22.10;99.90;;;;;;5090410;28;20687;-53
2022/05/22 06:25:03;;;;;;;11.43;6.57;;;22.20;99.90;;;;;;5089736;28;20204;-52
2022/05/22 06:27:31;;;;;;;9.38;6.18;;;22.50;99.90;;;;;;5091406;28;20681;-52
2022/05/22 06:30:00;;;;;;;13.20;6.88;;;22.70;99.90;;;;;;5109260;28;20261;-52
2022/05/22 06:32:28;;;;;;;9.77;6.35;;;22.60;99.90;;;;;;5109712;28;20187;-52
2022/05/22 06:34:58;;;;;;;12.88;6.65;;;22.50;99.90;;;;;;5108691;28;20261;-52
2022/05/22 06:37:27;;;;;;;11.52;7.05;;;22.80;99.90;;;;;;5098332;28;20227;-52
2022/05/22 06:39:55;;;;;;;12.57;6.60;;;22.90;99.90;;;;;;5087562;28;20233;-52
2022/05/22 06:42:26;;;;;;;11.45;6.43;;;23.20;99.90;;;;;;5088022;28;20204;-52
2022/05/22 06:44:56;;;;;;;9.00;6.20;;;23.10;99.90;;;;;;5094407;28;20298;-52
2022/05/22 06:47:25;;;;;;;11.23;6.55;;;23.30;99.90;;;;;;5094264;28;20224;-52
2022/05/22 06:49:54;;;;;;;12.07;6.93;;;23.40;99.90;;;;;;5107952;28;20583;-52
2022/05/22 06:52:22;;;;;;;9.13;6.25;;;23.70;99.90;;;;;;5107394;28;20254;-52
2022/05/22 06:54:51;;;;;;;10.45;6.40;;;23.60;99.90;;;;;;5109383;28;20294;-52
2022/05/22 06:57:22;;;;;;;8.75;5.72;;;23.70;99.90;;;;;;5107766;28;20266;-52
2022/05/22 06:59:54;;;;;;;9.10;6.20;;;23.80;99.90;;;;;;5084849;28;20239;-53
2022/05/22 07:02:22;;;;;;;11.75;6.50;;;23.80;99.90;;;;;;5107969;28;20599;-53
2022/05/22 07:04:50;;;;;;;10.98;7.05;;;23.70;99.90;;;;;;5109196;28;20351;-52
2022/05/22 07:07:18;;;;;;;12.82;6.63;;;23.70;99.90;;;;;;5100733;28;20274;-52
2022/05/22 07:09:47;;;;;;;10.82;6.15;;;24.10;99.90;;;;;;5096615;28;20235;-53
2022/05/22 07:12:18;;;;;;;11.07;6.30;;;24.10;99.90;;;;;;5087225;28;20208;-53
2022/05/22 07:14:48;;;;;;;12.80;6.70;;;24.40;99.90;;;;;;5104397;28;20222;-52
2022/05/22 07:17:21;;;;;;;11.55;6.32;;;24.50;99.90;;;;;;5105302;28;20199;-52
2022/05/22 07:19:50;;;;;;;9.00;6.53;;;24.40;99.90;;;;;;5103974;28;20779;-53
2022/05/22 07:22:18;;;;;;;9.48;6.22;;;24.60;99.90;;;;;;5104834;28;20295;-52
2022/05/22 07:24:46;;;;;;;9.98;6.05;;;24.30;99.90;;;;;;5103648;27;20210;-52
2022/05/22 07:27:15;;;;;;;9.30;6.50;;;24.20;99.90;;;;;;5111196;28;20223;-52
2022/05/22 07:29:43;;;;;;;13.68;6.20;;;24.40;99.90;;;;;;5107583;28;20211;-52
2022/05/22 07:32:15;;;;;;;12.00;6.47;;;24.50;99.90;;;;;;5114271;27;20204;-53
2022/05/22 07:34:43;;;;;;;11.90;6.32;;;24.30;99.90;;;;;;5109598;28;20234;-53
2022/05/22 07:37:13;;;;;;;10.82;6.20;;;24.70;99.90;;;;;;5109261;28;20203;-53
2022/05/22 07:39:41;;;;;;;9.05;6.38;;;25.00;99.90;;;;;;5104570;28;20208;-53
2022/05/22 07:42:09;;;;;;;14.60;7.00;;;25.10;99.90;;;;;;5109958;27;20647;-53
2022/05/22 07:44:37;;;;;;;12.15;6.90;;;25.10;99.90;;;;;;5104763;28;20205;-53
2022/05/22 07:47:06;;;;;;;12.07;6.65;;;25.10;99.90;;;;;;5097877;28;20346;-52
2022/05/22 07:52:22;;;;;;;12.55;6.25;;;25.30;99.90;;;;;;5096608;28;20258;-52
2022/05/22 07:54:50;;;;;;;11.25;6.85;;;25.30;99.90;;;;;;5103498;28;20737;-52
2022/05/22 07:57:18;;;;;;;13.32;6.93;;;25.10;99.90;;;;;;5110482;28;20243;-52
2022/05/22 07:59:46;;;;;;;11.43;7.00;;;25.20;99.90;;;;;;5111221;28;20251;-53
2022/05/22 08:02:15;;;;;;;11.63;6.97;;;25.20;99.90;;;;;;5111011;28;20590;-53
2022/05/22 08:04:44;;;;;;;11.85;8.00;;;25.00;99.90;;;;;;5106982;28;20580;-52
2022/05/22 08:07:12;;;;;;;10.90;7.53;;;24.90;99.90;;;;;;5111138;28;20258;-52
2022/05/22 08:09:40;;;;;;;9.80;6.78;;;24.30;99.90;;;;;;5105987;28;20258;-53
2022/05/22 08:12:09;;;;;;;12.90;7.07;;;24.20;99.90;;;;;;5110925;28;20402;-51
2022/05/22 08:14:38;;;;;;;10.38;7.07;;;24.20;99.90;;;;;;5106467;28;20779;-52
2022/05/22 08:17:06;;;;;;;11.38;7.03;;;24.10;99.90;;;;;;5110228;28;20747;-52
2022/05/22 08:19:34;;;;;;;12.20;7.13;;;24.30;99.90;;;;;;5110918;28;20204;-52
2022/05/22 08:22:03;;;;;;;8.80;7.03;;;24.50;98.90;;;;;;5097872;28;20355;-52
2022/05/22 08:24:31;;;;;;;11.05;6.75;;;23.80;99.40;;;;;;5110352;28;20638;-52
2022/05/22 08:27:00;;;;;;;11.43;6.18;;;23.30;99.90;;;;;;5104632;27;20255;-53
2022/05/22 08:29:28;;;;;;;13.27;6.40;;;23.00;99.90;;;;;;5103024;27;20204;-52
2022/05/22 08:31:56;;;;;;;11.30;6.53;;;22.90;99.90;;;;;;5104476;28;20224;-52
2022/05/22 08:34:24;;;;;;;10.38;6.45;;;23.00;99.80;;;;;;5101917;28;20255;-53
2022/05/22 08:36:53;;;;;;;9.55;5.85;;;23.30;99.90;;;;;;5104062;28;20250;-52
2022/05/22 08:39:22;;;;;;;11.27;5.80;;;23.20;99.90;;;;;;5096176;28;20227;-52
2022/05/22 08:41:52;;;;;;;14.05;6.35;;;23.30;99.90;;;;;;5097034;28;20603;-52
2022/05/22 08:44:23;;;;;;;13.02;6.82;;;23.50;99.90;;;;;;5093367;28;20208;-51
2022/05/22 08:46:58;;;;;;;14.35;6.82;;;23.60;99.90;;;;;;5097585;27;20227;-51
2022/05/22 08:49:32;;;;;;;12.23;6.65;;;23.50;99.90;;;;;;5095229;28;20218;-52
2022/05/22 08:52:06;;;;;;;11.82;7.07;;;23.20;99.90;;;;;;5096181;28;20227;-52
2022/05/22 08:54:40;;;;;;;11.85;7.07;;;22.80;99.90;;;;;;5094064;28;20260;-52
2022/05/22 09:00:09;;;;;;;10.57;6.47;;;22.20;99.90;;;;;;5110115;28;20292;-52
2022/05/22 09:02:45;;;;;;;13.35;6.60;;;22.10;99.90;;;;;;5109403;28;20261;-53
2022/05/22 09:05:17;;;;;;;12.07;6.63;;;21.80;99.90;;;;;;5092337;28;20208;-52
2022/05/22 09:07:53;;;;;;;10.20;6.80;;;21.60;99.90;;;;;;5095243;28;20228;-52
2022/05/22 09:10:26;;;;;;;12.00;6.68;;;21.50;99.90;;;;;;5096111;28;20227;-52
2022/05/22 09:13:11;;;;;;;12.45;6.10;;;21.30;99.90;;;;;;5096756;28;20295;-53
2022/05/22 09:16:06;;;;;;;8.95;5.53;;;21.60;99.90;;;;;;5105817;28;20207;-52
2022/05/22 09:18:36;;;;;;;12.07;6.03;;;21.50;99.90;;;;;;5104293;28;20695;-52
2022/05/22 09:21:13;;;;;;;8.38;5.65;;;22.00;99.90;;;;;;5104044;28;20251;-52
2022/05/22 09:23:56;;;;;;;12.13;6.45;;;22.20;99.90;;;;;;5097882;28;20250;-52
2022/05/22 09:26:46;;;;;;;10.52;5.88;;;22.50;99.90;;;;;;5110182;28;20207;-52
2022/05/22 09:29:48;;;;;;;11.50;6.30;;;22.70;99.90;;;;;;5097698;27;20253;-52
2022/05/22 09:32:38;;;;;;;11.93;6.15;;;22.70;99.90;;;;;;5097331;28;20211;-51
2022/05/22 09:35:18;;;;;;;11.65;5.95;;;22.60;99.90;;;;;;5102538;28;20972;-52
2022/05/22 09:37:59;;;;;;;12.52;5.72;;;22.90;99.90;;;;;;5109655;28;20319;-51
2022/05/22 09:40:35;;;;;;;12.63;5.95;;;23.30;99.90;;;;;;5109988;28;20720;-52
2022/05/22 09:43:41;;;;;;;9.75;5.53;;;23.50;99.90;;;;;;5109361;28;20247;-52
2022/05/22 09:46:39;;;;;;;13.10;5.93;;;23.60;99.90;;;;;;5108675;28;20710;-52
2022/05/22 09:49:27;;;;;;;11.20;5.55;;;23.80;99.90;;;;;;5110494;27;20231;-52
2022/05/22 09:52:02;;;;;;;8.65;4.80;;;23.80;99.90;;;;;;5099232;28;20708;-52
2022/05/22 09:54:43;;;;;;;11.90;6.13;;;23.70;99.90;;;;;;5103617;28;20242;-51
2022/05/22 09:57:51;;;;;;;10.45;5.70;;;23.60;99.90;;;;;;5109622;28;20260;-52
2022/05/22 10:00:27;;;;;;;12.75;5.85;;;23.60;99.90;;;;;;5109092;28;20684;-52
2022/05/22 10:03:04;;;;;;;10.73;5.80;;;23.20;99.90;;;;;;5108640;28;20264;-52
2022/05/22 10:05:45;;;;;;;8.95;5.38;;;23.00;99.90;;;;;;5109101;28;20211;-52
2022/05/22 10:08:24;;;;;;;10.95;5.53;;;22.60;99.90;;;;;;5105077;28;20288;-52
2022/05/22 10:11:05;;;;;;;11.55;5.07;;;22.50;99.90;;;;;;5108828;28;20772;-52
2022/05/22 10:13:55;;;;;;;10.00;5.72;;;22.40;99.90;;;;;;5109284;28;20255;-51
2022/05/22 10:16:36;;;;;;;9.38;5.32;;;22.60;99.90;;;;;;5108773;28;20589;-52
2022/05/22 10:19:18;;;;;;;10.15;5.07;;;22.80;99.90;;;;;;5106931;28;20200;-52
2022/05/22 10:21:52;;;;;;;11.65;5.45;;;22.90;99.90;;;;;;5099984;28;20364;-52
2022/05/22 10:24:49;;;;;;;9.35;5.32;;;23.00;99.90;;;;;;5102627;28;20223;-51
2022/05/22 10:27:43;;;;;;;10.23;5.05;;;23.00;99.90;;;;;;5106512;28;20211;-52
2022/05/22 10:30:17;;;;;;;11.07;5.30;;;23.00;99.90;;;;;;5107051;28;20268;-52
2022/05/22 10:32:50;;;;;;;12.07;5.57;;;22.90;99.90;;;;;;5108481;28;20733;-52
2022/05/22 10:35:26;;;;;;;9.20;5.07;;;22.80;99.90;;;;;;5109516;28;20233;-52
2022/05/22 10:38:01;;;;;;;9.75;4.65;;;22.60;99.90;;;;;;5107740;28;20684;-52
2022/05/22 10:42:44;;;;;;;9.63;4.63;;;22.80;99.90;;;;;;5109341;28;20276;-52
2022/05/22 10:43:18;;;;;;;9.30;4.97;;;23.00;99.90;;;;;;5107229;28;20239;-52
2022/05/22 10:45:46;;;;;;;9.70;4.78;;;22.80;99.90;;;;;;5108692;28;20582;-52
2022/05/22 10:48:21;;;;;;;9.18;4.57;;;22.70;99.90;;;;;;5108906;28;20276;-52
2022/05/22 10:50:55;;;;;;;11.18;4.75;;;22.60;99.90;;;;;;5108930;28;20235;-53
2022/05/22 10:53:32;;;;;;;11.27;4.18;;;22.30;99.90;;;;;;5109005;28;20211;-52
2022/05/22 10:56:03;;;;;;;9.63;4.15;;;22.40;99.90;;;;;;5108440;28;20745;-52
2022/05/22 10:58:33;;;;;;;9.60;4.80;;;22.40;99.90;;;;;;5111657;28;20246;-52
2022/05/22 11:01:05;;;;;;;8.50;4.30;;;22.40;99.90;;;;;;5113326;28;20227;-53
2022/05/22 11:03:36;;;;;;;8.70;4.25;;;22.20;99.40;;;;;;5112749;28;20258;-53
2022/05/22 11:06:17;;;;;;;7.47;5.07;;;22.00;99.70;;;;;;5112425;28;20290;-52
2022/05/22 11:08:49;;;;;;;8.05;5.10;;;22.20;99.90;;;;;;5113317;28;20235;-52
2022/05/22 11:11:20;;;;;;;9.30;4.45;;;22.10;99.90;;;;;;5112687;28;20909;-52
2022/05/22 11:13:48;;;;;;;8.60;4.65;;;22.10;99.90;;;;;;5112691;28;20207;-52
2022/05/22 11:16:18;;;;;;;9.30;4.70;;;22.10;99.90;;;;;;5100960;28;20235;-52
2022/05/22 11:18:48;;;;;;;9.25;4.43;;;22.20;99.90;;;;;;5098916;28;20273;-52
2022/05/22 11:21:28;;;;;;;10.98;4.80;;;22.30;99.90;;;;;;5101467;28;20259;-52
2022/05/22 11:24:26;;;;;;;9.93;4.65;;;22.40;99.90;;;;;;5104269;28;20207;-52
2022/05/22 11:27:03;;;;;;;7.90;4.25;;;22.40;99.90;;;;;;5111746;28;20264;-51
2022/05/22 11:29:48;;;;;;;6.68;4.38;;;22.50;99.90;;;;;;5112275;28;20648;-50
2022/05/22 11:32:33;;;;;;;10.23;4.28;;;22.50;99.90;;;;;;5112685;28;20260;-52
2022/05/22 11:35:25;;;;;;;8.77;4.90;;;22.40;99.90;;;;;;5112738;28;20215;-52
2022/05/22 11:38:15;;;;;;;8.45;4.05;;;22.30;99.90;;;;;;5111648;28;20247;-54
2022/05/22 11:40:51;;;;;;;8.82;4.25;;;22.10;99.90;;;;;;5112143;28;20292;-53
2022/05/22 11:43:51;;;;;;;7.97;3.95;;;22.10;99.90;;;;;;5109066;28;20302;-52
2022/05/22 11:46:27;;;;;;;10.20;4.40;;;22.00;99.90;;;;;;5112125;28;20299;-52
2022/05/22 11:49:07;;;;;;;6.78;4.03;;;21.90;99.90;;;;;;5111642;28;20234;-52
2022/05/22 11:52:05;;;;;;;9.40;4.60;;;21.90;99.90;;;;;;5111275;28;20723;-52
2022/05/22 11:54:48;;;;;;;9.55;4.32;;;22.00;99.90;;;;;;5112514;28;20219;-53
2022/05/22 11:57:29;;;;;;;6.97;4.10;;;22.30;99.90;;;;;;5111059;28;20294;-53
2022/05/22 12:00:19;;;;;;;6.78;4.13;;;22.50;99.90;;;;;;5111737;28;20216;-51
2022/05/22 12:03:15;;;;;;;7.88;3.97;;;22.40;99.90;;;;;;5111926;28;20618;-52
2022/05/22 12:05:51;;;;;;;6.88;3.88;;;22.70;99.90;;;;;;5107209;28;20243;-52
2022/05/22 12:08:44;;;;;;;8.02;3.97;;;22.80;99.40;;;;;;5102796;28;20250;-52
2022/05/22 12:11:19;;;;;;;8.15;4.03;;;22.70;98.50;;;;;;5108107;28;20277;-52
2022/05/22 12:13:53;;;;;;;10.60;3.75;;;22.80;99.50;;;;;;5110556;28;20712;-53
2022/05/22 12:16:25;;;;;;;8.63;4.00;;;22.90;99.60;;;;;;5111085;28;20207;-52
2022/05/22 12:19:06;;;;;;;6.50;3.65;;;22.90;99.90;;;;;;5112336;27;20674;-52
2022/05/22 12:21:47;;;;;;;9.77;4.10;;;22.90;99.40;;;;;;5111490;28;20584;-52
2022/05/22 12:24:23;;;;;;;10.05;4.10;;;22.90;99.90;;;;;;5102555;28;20303;-51
2022/05/22 12:26:52;;;;;;;8.27;3.70;;;22.80;99.30;;;;;;5108642;28;20210;-52
2022/05/22 12:29:27;;;;;;;7.05;3.38;;;22.90;99.90;;;;;;5111709;28;20323;-53
2022/05/22 12:31:57;;;;;;;7.38;3.70;;;23.10;99.90;;;;;;5110276;28;20256;-53
2022/05/22 12:34:33;;;;;;;6.35;3.47;;;23.20;99.90;;;;;;5110646;28;20254;-53
2022/05/22 12:37:03;;;;;;;7.38;3.55;;;23.30;99.90;;;;;;5110759;28;20276;-53
2022/05/22 12:39:47;;;;;;;6.18;3.60;;;23.40;99.90;;;;;;5110168;28;20281;-53
2022/05/22 12:42:21;;;;;;;6.30;3.30;;;23.70;99.90;;;;;;5110775;28;20912;-53
2022/05/22 12:44:50;;;;;;;5.60;3.10;;;24.00;99.90;;;;;;5110939;28;20633;-53
2022/05/22 12:47:18;;;;;;;7.55;3.30;;;24.00;99.90;;;;;;5111375;27;20726;-53
2022/05/22 12:49:54;;;;;;;6.88;3.15;;;24.00;99.90;;;;;;5110565;28;20315;-53
2022/05/22 12:52:30;;;;;;;5.18;3.15;;;24.10;99.90;;;;;;5109780;28;20204;-53
2022/05/22 12:55:02;;;;;;;10.50;3.60;;;24.30;99.50;;;;;;5110514;28;20211;-53
2022/05/22 12:57:30;;;;;;;6.53;3.38;;;24.40;99.90;;;;;;5110954;28;20207;-53
2022/05/22 13:00:00;;;;;;;6.00;3.28;;;24.50;99.90;;;;;;5110330;28;20235;-53
2022/05/22 13:02:41;;;;;;;7.28;3.10;;;24.60;99.90;;;;;;5109498;28;20215;-52
2022/05/22 13:05:27;;;;;;;8.07;3.03;;;24.50;98.30;;;;;;5109561;28;20275;-52
2022/05/22 13:07:55;;;;;;;6.53;3.33;;;24.40;99.90;;;;;;5110516;28;20239;-53
2022/05/22 13:10:35;;;;;;;11.52;4.03;;;24.20;99.40;;;;;;5109604;28;20695;-52
2022/05/22 13:13:07;;;;;;;8.88;3.67;;;24.00;98.50;;;;;;5110053;28;20208;-52
2022/05/22 13:15:36;;;;;;;7.70;3.53;;;23.90;99.40;;;;;;5109951;28;20261;-53
2022/05/22 13:18:12;;;;;;;5.80;3.10;;;23.90;99.80;;;;;;5110084;28;20215;-52
2022/05/22 13:20:51;;;;;;;5.88;3.15;;;24.00;98.10;;;;;;5107345;28;20234;-52